Posey, California
Current Conditions -  °F | °C
As of 9:15 AM on Friday 31 Oct 2014 (Local Time) from KPTV Reporting Station
Clear Clear  
Wind Chill: 63°   Ceiling: Unl
Heat Index: 63°   Visibility: 10mi
Dew Point: 48°   Wind: 5mph
Humidity: 59%   Direction: 130°SE
Pressure: 29.93"   Gusts: NA
Location:  35.8°N, 118.68°W
Report Text: KPTV 311615Z AUTO 13004KT 10SM CLR 17/09 A2993 RMK AO1
Loading
Personal Weather Stations






























Interactive Weather Map
Tropical Storm Tracking
New forecast layout! Learn more

10-Day Weather Forecast

Advertisements
Track Severe Weather on mobile